Time;durP1;ratioP1;P1;durP2;ratioP2;P2;SDS_P1;SDS_P2;PMS_P1;PMS_P2;Temp;Humidity;BMP_temperature;BMP_pressure;BME280_temperature;BME280_humidity;BME280_pressure;Samples;Min_cycle;Max_cycle;Signal;HPM_P1;HPM_P2
2022/08/24 00:01:04;;;;;;;12.55;3.40;;;;;;;20.74;83.78;101649.31;5032455;28;20037;-77
2022/08/24 00:03:31;;;;;;;6.63;3.42;;;;;;;20.75;83.90;101657.31;5036002;28;20021;-77
2022/08/24 00:05:56;;;;;;;5.88;3.28;;;;;;;20.73;83.72;101648.50;5032555;28;20377;-76
2022/08/24 00:08:22;;;;;;;11.48;3.35;;;;;;;20.66;83.44;101647.72;5014458;28;20034;-77
2022/08/24 00:10:47;;;;;;;6.22;3.13;;;;;;;20.67;84.16;101645.81;5035318;28;20045;-76
2022/08/24 00:13:13;;;;;;;8.93;3.65;;;;;;;20.66;84.21;101655.09;5031998;28;20036;-76
2022/08/24 00:15:39;;;;;;;6.82;3.25;;;;;;;20.65;84.14;101650.72;5031894;28;20076;-77
2022/08/24 00:18:04;;;;;;;9.65;3.25;;;;;;;20.62;83.92;101646.53;5031886;28;20025;-77
2022/08/24 00:20:30;;;;;;;6.85;3.42;;;;;;;20.56;84.14;101653.75;5027253;28;20461;-77
2022/08/24 00:22:56;;;;;;;13.20;3.40;;;;;;;20.52;84.85;101657.13;5029799;28;20033;-77
2022/08/24 00:25:21;;;;;;;7.10;3.22;;;;;;;20.50;85.00;101660.09;5031927;28;20037;-76
2022/08/24 00:27:46;;;;;;;8.65;3.28;;;;;;;20.50;84.90;101659.25;5031812;28;20025;-77
2022/08/24 00:30:14;;;;;;;5.55;3.15;;;;;;;20.48;84.72;101654.00;5031737;28;20075;-77
2022/08/24 00:32:40;;;;;;;;;;;;;;;20.43;85.26;101659.31;5032540;28;20077;-77
2022/08/24 00:35:07;;;;;;;6.18;2.83;;;;;;;20.40;85.57;101654.31;5031858;28;19989;-77
2022/08/24 00:37:33;;;;;;;6.97;3.30;;;;;;;20.41;85.69;101657.91;5013858;28;20480;-76
2022/08/24 00:39:58;;;;;;;9.30;3.53;;;;;;;20.38;85.41;101653.72;5027760;28;20033;-77
2022/08/24 00:42:24;;;;;;;8.45;4.07;;;;;;;20.34;85.91;101655.22;5031679;28;20183;-77
2022/08/24 00:44:49;;;;;;;9.02;3.67;;;;;;;20.36;86.08;101653.94;5014112;28;20057;-76
2022/08/24 00:47:25;;;;;;;11.77;3.92;;;;;;;20.36;85.90;101653.94;5031591;28;20029;-76
2022/08/24 00:49:58;;;;;;;7.15;3.10;;;;;;;20.38;85.64;101648.25;5021783;28;20515;-76
2022/08/24 00:52:32;;;;;;;4.95;3.15;;;;;;;20.35;85.28;101646.81;5032638;28;20030;-76
2022/08/24 00:55:05;;;;;;;9.35;3.08;;;;;;;20.34;86.18;101650.59;5014269;28;20032;-77
2022/08/24 00:57:36;;;;;;;5.70;3.25;;;;;;;20.31;85.78;101651.06;5031958;28;20124;-78
2022/08/24 01:00:14;;;;;;;7.13;3.70;;;;;;;20.31;86.42;101653.78;5013913;28;20017;-78
2022/08/24 01:02:42;;;;;;;8.35;3.15;;;;;;;20.31;86.05;101648.31;5012055;28;20428;-77
2022/08/24 01:05:09;;;;;;;10.20;2.92;;;;;;;20.29;86.19;101636.78;5013438;28;20385;-78
2022/08/24 01:07:36;;;;;;;6.47;3.25;;;;;;;20.30;86.61;101643.94;5032097;28;20041;-77
2022/08/24 01:10:06;;;;;;;6.80;3.45;;;;;;;20.28;86.22;101640.59;5018390;28;20519;-78
2022/08/24 01:12:34;;;;;;;9.65;3.42;;;;;;;20.29;86.23;101636.78;5018010;28;20076;-77
2022/08/24 01:15:01;;;;;;;6.00;3.58;;;;;;;20.28;86.26;101645.22;5001884;28;20483;-77
2022/08/24 01:20:11;;;;;;;5.70;3.13;;;;;;;20.28;86.86;101645.22;5020509;28;20037;-78
2022/08/24 01:23:14;;;;;;;6.55;3.38;;;;;;;20.26;86.70;101650.06;5035394;28;20091;-77
2022/08/24 01:25:42;;;;;;;9.23;3.42;;;;;;;20.25;87.10;101648.38;5034802;28;20037;-76
2022/08/24 01:28:11;;;;;;;8.85;3.80;;;;;;;20.27;87.16;101649.81;5034768;28;20071;-77
2022/08/24 01:30:37;;;;;;;6.03;3.50;;;;;;;20.29;87.31;101664.09;5016864;28;20056;-77
2022/08/24 01:33:06;;;;;;;11.15;3.78;;;;;;;20.31;87.03;101664.72;5033768;28;20401;-77
2022/08/24 01:35:33;;;;;;;8.07;3.38;;;;;;;20.31;86.81;101659.25;5033354;28;20041;-77
2022/08/24 01:38:01;;;;;;;6.40;3.20;;;;;;;20.33;87.08;101669.97;5016548;28;20127;-77
2022/08/24 01:40:31;;;;;;;9.32;3.45;;;;;;;20.33;87.08;101665.34;5012007;28;20033;-78
2022/08/24 01:42:57;;;;;;;9.75;2.95;;;;;;;20.33;87.04;101673.53;5014828;28;20465;-77
2022/08/24 01:45:22;;;;;;;5.25;3.10;;;;;;;20.34;87.20;101672.47;5032901;28;20033;-77
2022/08/24 01:47:47;;;;;;;11.95;2.70;;;;;;;20.39;87.54;101674.53;5014667;28;20040;-77
2022/08/24 01:50:13;;;;;;;4.63;2.83;;;;;;;20.43;87.50;101669.44;5031153;28;20026;-77
2022/08/24 01:52:40;;;;;;;11.52;2.80;;;;;;;20.46;86.62;101674.44;5017110;28;20084;-78
2022/08/24 01:55:08;;;;;;;12.32;3.15;;;;;;;20.47;86.83;101676.97;5017315;28;20014;-78
2022/08/24 01:57:34;;;;;;;8.43;3.10;;;;;;;20.47;87.02;101676.97;5034933;28;20072;-75
2022/08/24 02:00:00;;;;;;;11.32;3.53;;;;;;;20.48;86.95;101673.16;5034227;28;20045;-75
2022/08/24 02:02:27;;;;;;;7.93;2.65;;;;;;;20.47;87.18;101676.13;5013001;28;20065;-76
2022/08/24 02:04:53;;;;;;;10.90;3.20;;;;;;;20.47;87.47;101674.22;5012712;28;20033;-77
2022/08/24 02:07:18;;;;;;;4.22;2.72;;;;;;;20.49;87.07;101668.53;5028102;28;20040;-77
2022/08/24 02:09:44;;;;;;;5.13;2.80;;;;;;;20.47;87.05;101676.97;5026387;28;20528;-76
2022/08/24 02:12:10;;;;;;;14.25;3.05;;;;;;;20.45;87.32;101665.41;5033787;28;20037;-76
2022/08/24 02:14:35;;;;;;;7.38;2.95;;;;;;;20.46;87.13;101669.81;5015739;28;20029;-77
2022/08/24 02:17:03;;;;;;;4.75;3.03;;;;;;;20.47;87.26;101673.41;5028941;28;20371;-78
2022/08/24 02:19:29;;;;;;;11.45;3.63;;;;;;;20.45;87.21;101670.03;5028944;28;20471;-75
2022/08/24 02:21:54;;;;;;;8.07;3.53;;;;;;;20.39;87.32;101660.84;5012189;28;20030;-77
2022/08/24 02:24:19;;;;;;;8.57;3.20;;;;;;;20.38;88.22;101668.22;5030766;28;20352;-76
2022/08/24 02:26:45;;;;;;;5.80;2.78;;;;;;;20.37;87.54;101668.44;5029776;28;20508;-78
2022/08/24 02:29:10;;;;;;;5.25;2.60;;;;;;;20.37;87.72;101668.44;5028565;28;20034;-78
2022/08/24 02:31:36;;;;;;;7.25;3.10;;;;;;;20.40;87.74;101662.50;5032138;28;20037;-75
2022/08/24 02:34:01;;;;;;;6.18;3.10;;;;;;;20.40;87.81;101670.72;5112660;23;20145;-84
2022/08/24 02:36:27;;;;;;;7.05;2.80;;;;;;;20.40;87.61;101670.72;5039326;28;20032;-86
2022/08/24 02:38:54;;;;;;;6.32;3.25;;;;;;;20.38;88.14;101668.22;5024663;28;20040;-82
2022/08/24 02:41:19;;;;;;;6.45;3.15;;;;;;;20.39;87.81;101669.88;5030575;28;20030;-82
2022/08/24 02:43:45;;;;;;;7.22;2.95;;;;;;;20.39;87.97;101661.69;5036821;28;20044;-85
2022/08/24 02:46:21;;;;;;;5.47;3.20;;;;;;;20.39;87.77;101664.41;5037543;28;20033;-83
2022/08/24 02:48:47;;;;;;;11.43;3.25;;;;;;;20.37;88.18;101662.97;5025259;28;20181;-83
2022/08/24 02:51:24;;;;;;;8.05;3.10;;;;;;;20.34;88.58;101666.16;5022891;28;20140;-84
2022/08/24 02:53:50;;;;;;;14.45;3.58;;;;;;;20.33;88.93;101659.88;5037956;28;20025;-83
2022/08/24 02:56:17;;;;;;;8.13;3.83;;;;;;;20.34;88.69;101664.25;5022338;28;20047;-84
2022/08/24 02:58:45;;;;;;;10.00;4.28;;;;;;;20.34;89.29;101658.81;5030049;28;20033;-84
2022/08/24 03:01:11;;;;;;;9.75;4.07;;;;;;;20.31;89.27;101662.00;5021887;28;20029;-87
2022/08/24 03:03:37;;;;;;;10.70;4.95;;;;;;;20.31;90.08;101666.63;5023891;28;20047;-87
2022/08/24 03:06:03;;;;;;;13.45;5.25;;;;;;;20.29;90.59;101663.28;5042472;28;20033;-87
2022/08/24 03:08:28;;;;;;;13.63;5.72;;;;;;;20.29;91.02;101669.56;5038163;28;20033;-83
2022/08/24 03:10:53;;;;;;;13.02;6.28;;;;;;;20.31;91.10;101678.38;5008368;28;20034;-84
2022/08/24 03:13:19;;;;;;;12.95;6.55;;;;;;;20.32;91.17;101669.13;5016131;28;20022;-85
2022/08/24 03:15:45;;;;;;;10.18;5.57;;;;;;;20.38;91.34;101679.16;5004179;28;20068;-87
2022/08/24 03:18:11;;;;;;;10.68;5.38;;;;;;;20.40;90.56;101670.72;5015790;28;20037;-85
2022/08/24 03:20:36;;;;;;;9.02;5.70;;;;;;;20.44;90.95;101660.19;4998167;28;20029;-86
2022/08/24 03:23:02;;;;;;;13.65;6.60;;;;;;;20.47;90.56;101673.41;5032385;28;20381;-85
2022/08/24 03:25:28;;;;;;;10.57;5.85;;;;;;;20.52;90.82;101673.56;5010412;28;20057;-85
2022/08/24 03:27:53;;;;;;;13.13;5.90;;;;;;;20.54;90.64;101666.00;5010802;28;20049;-85
2022/08/24 03:30:21;;;;;;;13.27;5.75;;;;;;;20.54;90.48;101671.47;5008344;28;20069;-85
2022/08/24 03:32:46;;;;;;;;;;;;;;;20.57;90.29;101671.00;4995823;28;20025;-86
2022/08/24 03:35:13;;;;;;;11.38;6.10;;;;;;;20.58;89.93;101667.19;4981640;28;20288;-85
2022/08/24 03:37:38;;;;;;;11.93;5.97;;;;;;;20.58;89.92;101670.75;5015005;28;20021;-85
2022/08/24 03:40:06;;;;;;;15.25;7.03;;;;;;;20.58;89.75;101667.19;5014563;28;20491;-85
2022/08/24 03:42:32;;;;;;;12.90;6.78;;;;;;;20.60;90.03;101670.53;5014613;28;20037;-86
2022/08/24 03:44:57;;;;;;;9.82;6.47;;;;;;;20.56;90.28;101669.31;4998059;28;20117;-85
2022/08/24 03:47:22;;;;;;;11.60;7.05;;;;;;;20.62;90.42;101668.41;5016973;28;20041;-85
2022/08/24 03:49:48;;;;;;;19.67;6.80;;;;;;;20.66;90.31;101671.53;5039115;28;20049;-83
2022/08/24 03:52:13;;;;;;;14.60;6.65;;;;;;;20.67;90.09;101671.31;5032017;28;20084;-84
2022/08/24 03:54:39;;;;;;;11.73;6.90;;;;;;;20.70;90.30;101670.84;5030226;28;20057;-87
2022/08/24 03:57:04;;;;;;;11.57;7.03;;;;;;;20.69;90.20;101671.06;4995484;28;20465;-85
2022/08/24 03:59:30;;;;;;;12.45;7.03;;;;;;;20.72;90.33;101667.84;5009925;28;20029;-85
2022/08/24 04:01:56;;;;;;;12.68;6.78;;;;;;;20.73;89.91;101675.03;5014200;28;20346;-86
2022/08/24 04:04:22;;;;;;;11.80;6.45;;;;;;;20.75;89.95;101667.41;5031599;28;20475;-84
2022/08/24 04:06:47;;;;;;;17.63;6.40;;;;;;;20.74;89.97;101666.56;5032273;28;20061;-83
2022/08/24 04:09:13;;;;;;;11.50;5.97;;;;;;;20.75;89.68;101667.41;5027580;28;20116;-85
2022/08/24 04:11:38;;;;;;;10.70;5.70;;;;;;;20.75;90.34;101679.19;5031792;28;20037;-86
2022/08/24 04:14:07;;;;;;;15.35;6.25;;;;;;;20.74;90.16;101677.50;4998233;28;20022;-83
2022/08/24 04:16:32;;;;;;;12.63;6.53;;;;;;;20.73;89.94;101673.09;5018342;28;20083;-83
2022/08/24 04:18:59;;;;;;;16.77;7.25;;;;;;;20.73;90.13;101675.84;4993672;28;20038;-86
2022/08/24 04:21:32;;;;;;;10.97;5.97;;;;;;;20.74;90.18;101672.03;5018348;28;20116;-83
2022/08/24 04:23:59;;;;;;;12.05;6.13;;;;;;;20.72;89.94;101676.91;5020655;28;20022;-84
2022/08/24 04:26:26;;;;;;;9.85;6.00;;;;;;;20.70;90.21;101676.31;5015874;28;20055;-85
2022/08/24 04:28:52;;;;;;;20.65;6.65;;;;;;;20.74;90.38;101679.41;4996922;28;20034;-83
2022/08/24 04:31:19;;;;;;;9.18;5.97;;;;;;;20.79;90.04;101682.28;5011030;28;20058;-85
2022/08/24 04:33:46;;;;;;;12.43;5.70;;;;;;;20.77;90.08;101681.69;5037315;28;20033;-84
2022/08/24 04:36:11;;;;;;;10.40;4.72;;;;;;;20.78;90.22;101688.84;5003760;28;20064;-84
2022/08/24 04:38:37;;;;;;;11.52;5.85;;;;;;;20.77;90.72;101688.00;5021676;28;20060;-83
2022/08/24 04:41:05;;;;;;;16.48;6.25;;;;;;;20.75;90.15;101692.88;5022570;28;20029;-83
2022/08/24 04:43:30;;;;;;;11.45;6.03;;;;;;;20.74;90.82;101685.72;5019876;28;20030;-83
2022/08/24 04:45:56;;;;;;;16.15;5.47;;;;;;;20.76;90.77;101691.78;5002872;28;20471;-83
2022/08/24 04:48:21;;;;;;;15.55;5.97;;;;;;;20.74;90.73;101687.63;5021173;28;20025;-83
2022/08/24 04:50:47;;;;;;;14.57;5.68;;;;;;;20.78;90.80;101691.56;5006904;28;20034;-83
2022/08/24 04:53:13;;;;;;;13.77;5.38;;;;;;;20.81;90.81;101694.69;4994695;28;20124;-84
2022/08/24 04:55:48;;;;;;;11.30;5.38;;;;;;;20.86;90.62;101698.66;5013813;28;20064;-83
2022/08/24 04:58:16;;;;;;;12.05;4.78;;;;;;;20.89;90.57;101690.78;5007554;28;20034;-84
2022/08/24 05:00:41;;;;;;;;;;;;;;;20.94;90.29;101692.84;5001795;28;20100;-84
2022/08/24 05:03:07;;;;;;;9.45;5.30;;;;;;;20.99;90.00;101691.09;5008766;28;19909;-83
2022/08/24 05:05:33;;;;;;;14.18;5.38;;;;;;;21.03;89.98;101691.44;5036372;28;20445;-84
2022/08/24 05:07:58;;;;;;;12.48;5.00;;;;;;;21.06;89.71;101688.25;5007725;28;20031;-82
2022/08/24 05:10:24;;;;;;;14.80;4.90;;;;;;;21.04;89.60;101688.50;5002213;28;20022;-78
2022/08/24 05:12:49;;;;;;;9.65;4.57;;;;;;;21.04;89.88;101687.66;5035823;28;20045;-83
2022/08/24 05:15:15;;;;;;;6.93;4.60;;;;;;;21.03;89.88;101694.19;5018947;28;20338;-81
2022/08/24 05:17:41;;;;;;;8.77;4.85;;;;;;;21.04;90.07;101688.50;5007003;28;20033;-79
2022/08/24 05:20:08;;;;;;;11.10;4.75;;;;;;;21.05;89.63;101690.16;5011614;28;20033;-79
2022/08/24 05:22:34;;;;;;;11.00;5.00;;;;;;;21.06;89.61;101701.94;5039424;28;20021;-80
2022/08/24 05:24:59;;;;;;;22.20;6.03;;;;;;;21.04;89.60;101704.91;5056856;28;20021;-78
2022/08/24 05:27:26;;;;;;;14.65;4.78;;;;;;;21.06;89.74;101704.66;5034279;28;20021;-79
2022/08/24 05:29:52;;;;;;;7.47;4.00;;;;;;;21.05;89.89;101700.28;5054620;28;20086;-78
2022/08/24 05:32:18;;;;;;;11.32;5.05;;;;;;;21.04;89.91;101701.34;5051466;28;20081;-75
2022/08/24 05:34:44;;;;;;;23.48;5.35;;;;;;;21.06;89.94;101704.66;5034968;28;20404;-76
2022/08/24 05:37:09;;;;;;;12.85;4.85;;;;;;;21.08;89.66;101704.44;5031092;28;20072;-77
2022/08/24 05:39:34;;;;;;;14.32;4.90;;;;;;;21.10;89.71;101697.69;5053304;28;20029;-77
2022/08/24 05:42:00;;;;;;;10.60;4.22;;;;;;;21.15;89.51;101700.56;5030247;28;20045;-77
2022/08/24 05:44:26;;;;;;;8.13;4.78;;;;;;;21.19;89.53;101706.41;5033733;28;20033;-77
2022/08/24 05:46:53;;;;;;;12.57;4.57;;;;;;;21.25;88.73;101706.31;5030928;28;20049;-80
2022/08/24 05:49:18;;;;;;;17.65;4.28;;;;;;;21.40;88.62;101707.81;5045187;28;20045;-79
2022/08/24 05:51:43;;;;;;;15.63;4.55;;;;;;;21.51;87.67;101707.00;5009729;28;20034;-79
2022/08/24 05:54:12;;;;;;;13.60;4.90;;;;;;;21.56;86.99;101706.31;5050371;28;20025;-80
2022/08/24 05:56:37;;;;;;;9.40;4.60;;;;;;;21.57;87.12;101697.06;5030732;28;20038;-80
2022/08/24 05:59:03;;;;;;;13.10;4.60;;;;;;;21.63;86.73;101707.06;5050226;28;20164;-79
2022/08/24 06:01:28;;;;;;;6.65;4.15;;;;;;;21.64;86.76;101698.63;5038407;28;20040;-79
2022/08/24 06:03:56;;;;;;;13.15;4.57;;;;;;;21.85;86.19;101704.59;5042404;28;20043;-78
2022/08/24 06:06:23;;;;;;;11.02;4.82;;;;;;;22.08;85.32;101701.03;5023246;28;20110;-78
2022/08/24 06:08:50;;;;;;;17.30;5.00;;;;;;;22.87;82.95;101706.94;5042741;28;20028;-79
2022/08/24 06:11:23;;;;;;;;;;;;;;;23.97;77.46;101706.81;5009975;28;20044;-79
2022/08/24 06:13:50;;;;;;;19.30;5.22;;;;;;;24.95;73.84;101709.84;5036353;28;19940;-79
2022/08/24 06:16:16;;;;;;;27.58;7.75;;;;;;;26.20;68.82;101714.38;5005857;28;20064;-79
2022/08/24 06:18:42;;;;;;;12.88;4.40;;;;;;;26.53;65.62;101717.91;5008252;28;20446;-79
2022/08/24 06:21:10;;;;;;;18.95;5.00;;;;;;;26.84;62.80;101718.88;5031535;28;20428;-79
2022/08/24 06:23:38;;;;;;;13.00;4.55;;;;;;;26.51;63.89;101720.88;5033228;28;20052;-79
2022/08/24 06:28:49;;;;;;;20.25;6.75;;;;;;;26.80;61.53;101718.56;5016807;28;20068;-78
2022/08/24 06:31:15;;;;;;;17.65;6.97;;;;;;;27.14;61.66;101723.66;5003216;28;20027;-79
2022/08/24 06:33:40;;;;;;;17.77;6.97;;;;;;;27.14;59.60;101718.97;4985361;28;20030;-79
2022/08/24 06:36:06;;;;;;;16.83;6.85;;;;;;;27.61;58.94;101727.38;5030253;28;20037;-80
2022/08/24 06:38:31;;;;;;;20.40;7.95;;;;;;;27.74;58.08;101721.31;5010223;28;20025;-79
2022/08/24 06:40:57;;;;;;;23.52;7.65;;;;;;;27.20;59.30;101730.91;5044163;28;20083;-80
2022/08/24 06:43:25;;;;;;;18.60;8.43;;;;;;;27.35;59.21;101724.59;5046151;28;20028;-81
2022/08/24 06:45:52;;;;;;;25.52;9.32;;;;;;;26.98;59.56;101725.56;5046351;28;20037;-79
2022/08/24 06:48:17;;;;;;;;;;;;;;;27.18;59.44;101730.34;5027936;28;20040;-79
2022/08/24 06:50:43;;;;;;;21.83;8.10;;;;;;;27.29;59.18;101737.56;5024589;28;20347;-80
2022/08/24 06:53:13;;;;;;;23.05;8.32;;;;;;;27.07;59.89;101731.41;5022255;28;20061;-80
2022/08/24 06:55:43;;;;;;;22.17;8.40;;;;;;;27.01;59.31;101729.72;5022719;28;20027;-81
2022/08/24 06:58:09;;;;;;;21.52;8.00;;;;;;;27.42;59.14;101738.16;5042114;28;20026;-79
2022/08/24 07:00:34;;;;;;;17.25;7.68;;;;;;;27.54;59.05;101727.66;5020086;28;20049;-79
2022/08/24 07:03:00;;;;;;;33.33;7.70;;;;;;;28.66;56.94;101741.44;5049926;28;20052;-80
2022/08/24 07:05:26;;;;;;;23.40;9.10;;;;;;;28.25;56.48;101735.13;5048540;28;20056;-81
2022/08/24 07:07:52;;;;;;;24.70;10.30;;;;;;;27.47;57.60;101732.63;5039330;28;20030;-78
2022/08/24 07:10:17;;;;;;;28.88;8.27;;;;;;;28.13;57.29;101735.44;5023546;28;20018;-79
2022/08/24 07:12:43;;;;;;;29.60;9.27;;;;;;;28.32;56.36;101732.91;5023795;28;20021;-79
2022/08/24 07:15:09;;;;;;;27.40;10.45;;;;;;;28.23;55.31;101735.44;5044485;28;20025;-80
2022/08/24 07:17:34;;;;;;;23.20;11.18;;;;;;;27.26;57.76;101740.06;5034795;28;20045;-79
2022/08/24 07:20:00;;;;;;;27.45;8.43;;;;;;;28.00;56.96;101742.38;5031391;28;20042;-79
2022/08/24 07:22:25;;;;;;;31.40;9.68;;;;;;;28.41;54.34;101747.84;5019688;28;20049;-82
2022/08/24 07:24:50;;;;;;;20.50;9.73;;;;;;;27.92;54.84;101748.47;5023313;28;20026;-79
2022/08/24 07:27:16;;;;;;;26.02;8.50;;;;;;;28.57;53.47;101754.22;5023902;28;20063;-79
2022/08/24 07:29:41;;;;;;;28.30;7.50;;;;;;;28.55;54.09;101750.91;5020594;28;20017;-79
2022/08/24 07:32:08;;;;;;;18.98;6.97;;;;;;;28.60;54.19;101753.66;5041528;28;20022;-81
2022/08/24 07:34:34;;;;;;;;;;;;;;;29.42;52.27;101764.38;5024355;28;20116;-80
2022/08/24 07:36:59;;;;;;;16.73;7.80;;;;;;;28.52;53.56;101767.25;5023247;28;19917;-79
2022/08/24 07:39:26;;;;;;;15.02;5.38;;;;;;;29.75;52.25;101764.75;5045565;28;20041;-79
2022/08/24 07:41:51;;;;;;;18.42;6.15;;;;;;;29.73;50.46;101764.22;5029734;28;20085;-79
2022/08/24 07:44:17;;;;;;;19.07;7.30;;;;;;;28.29;54.74;101768.63;5023227;28;20033;-79
2022/08/24 07:46:43;;;;;;;21.52;7.50;;;;;;;28.24;54.02;101763.94;5039231;28;20018;-79
2022/08/24 07:49:09;;;;;;;18.13;6.68;;;;;;;28.80;53.66;101772.13;5037597;28;20013;-80
2022/08/24 07:51:36;;;;;;;19.58;7.65;;;;;;;28.82;52.34;101771.84;5020174;28;20030;-80
2022/08/24 07:54:02;;;;;;;15.05;5.88;;;;;;;29.47;51.54;101767.13;5035473;28;20030;-80
2022/08/24 07:56:27;;;;;;;20.27;7.07;;;;;;;29.89;50.25;101771.31;5021392;28;20411;-79
2022/08/24 07:58:53;;;;;;;20.63;7.30;;;;;;;29.85;50.21;101775.75;5058794;28;20089;-79
2022/08/24 08:01:20;;;;;;;15.90;7.20;;;;;;;29.47;51.10;101774.63;5051994;28;20109;-80
2022/08/24 08:03:47;;;;;;;22.48;7.18;;;;;;;29.50;51.05;101780.41;5039300;28;20044;-80
2022/08/24 08:06:12;;;;;;;;;;;;;;;30.00;50.30;101774.81;5011695;28;20073;-80
2022/08/24 08:08:39;;;;;;;26.53;7.37;;;;;;;29.66;50.18;101780.34;5036328;28;19936;-80
2022/08/24 08:11:06;;;;;;;;;;;;;;;29.97;49.08;101776.22;5028691;28;20093;-79
2022/08/24 08:13:32;;;;;;;20.85;7.22;;;;;;;30.67;47.96;101780.56;5035286;28;19932;-79
2022/08/24 08:15:59;;;;;;;12.53;5.20;;;;;;;30.57;49.28;101775.13;5027287;28;20081;-78
2022/08/24 08:18:25;;;;;;;12.25;4.90;;;;;;;31.54;47.06;101782.25;5041516;28;20033;-79
2022/08/24 08:20:50;;;;;;;;;;;;;;;33.16;43.26;101781.63;5018577;28;20469;-79
2022/08/24 08:26:19;;;;;;;13.32;4.70;;;;;;;32.47;43.98;101788.00;4973410;28;20059;-79
2022/08/24 08:28:45;;;;;;;10.88;4.30;;;;;;;32.63;43.96;101793.28;5017414;28;20033;-79
2022/08/24 08:31:11;;;;;;;12.47;5.30;;;;;;;32.21;43.86;101795.16;5043407;28;20037;-79
2022/08/24 08:33:36;;;;;;;18.23;5.05;;;;;;;31.46;45.29;101791.28;5038995;28;20473;-81
2022/08/24 08:36:08;;;;;;;10.03;4.40;;;;;;;32.46;43.62;101789.09;5042880;28;20060;-80
2022/08/24 08:38:34;;;;;;;13.95;4.50;;;;;;;32.16;43.69;101781.31;5036023;28;20033;-78
2022/08/24 08:41:18;;;;;;;11.65;4.05;;;;;;;31.98;44.10;101783.84;5026784;28;20496;-78
2022/08/24 08:43:47;;;;;;;12.05;2.72;;;;;;;32.28;44.54;101792.78;5042596;28;20042;-78
2022/08/24 08:46:31;;;;;;;7.63;2.80;;;;;;;32.08;43.13;101786.44;5024043;28;20052;-77
2022/08/24 08:49:01;;;;;;;10.57;2.40;;;;;;;33.07;42.29;101789.06;5039327;28;20041;-78
2022/08/24 08:51:58;;;;;;;5.55;2.03;;;;;;;32.41;42.29;101794.75;5047048;28;20040;-79
2022/08/24 08:54:51;;;;;;;7.30;2.60;;;;;;;32.70;42.16;101782.53;5026632;28;20056;-78
2022/08/24 08:57:31;;;;;;;5.03;1.80;;;;;;;32.80;41.86;101790.69;5041784;28;20044;-80
2022/08/24 09:00:21;;;;;;;9.63;2.25;;;;;;;32.91;41.15;101785.75;5044700;28;20140;-81
2022/08/24 09:03:10;;;;;;;4.63;1.60;;;;;;;33.14;41.13;101790.28;5027561;28;20056;-79
2022/08/24 09:05:58;;;;;;;7.68;1.85;;;;;;;32.76;41.70;101786.91;5027094;28;20033;-80
2022/08/24 09:08:23;;;;;;;5.78;1.92;;;;;;;31.85;42.93;101792.94;5048941;28;20042;-79
2022/08/24 09:11:02;;;;;;;3.20;1.57;;;;;;;31.67;43.61;101789.03;5034466;28;20041;-79
2022/08/24 09:13:46;;;;;;;5.65;1.80;;;;;;;32.58;42.49;101795.03;5044876;28;20040;-79
2022/08/24 09:16:41;;;;;;;5.22;2.03;;;;;;;32.80;40.65;101799.06;5034019;28;20036;-80
2022/08/24 09:19:19;;;;;;;7.47;2.13;;;;;;;33.07;40.80;101800.22;5008286;28;20022;-83
2022/08/24 09:21:56;;;;;;;5.50;2.00;;;;;;;32.69;41.42;101797.63;5022337;28;20050;-80
2022/08/24 09:24:28;;;;;;;9.73;2.20;;;;;;;33.29;40.35;101797.50;5033874;28;20112;-81
2022/08/24 09:27:31;;;;;;;5.78;2.00;;;;;;;32.24;42.19;101794.53;5038769;28;20060;-81
2022/08/24 09:30:11;;;;;;;5.55;2.80;;;;;;;31.97;42.73;101800.84;5032370;28;20072;-81
2022/08/24 09:32:45;;;;;;;7.50;2.92;;;;;;;31.76;43.18;101794.75;5025395;28;20021;-79
2022/08/24 09:35:18;;;;;;;8.25;1.52;;;;;;;32.94;40.31;101797.13;5023232;28;20104;-80
2022/08/24 09:38:16;;;;;;;4.57;1.50;;;;;;;32.87;40.61;101802.28;5044111;28;20492;-82
2022/08/24 09:40:51;;;;;;;10.38;2.13;;;;;;;32.50;40.91;101808.84;5007327;28;20503;-80
2022/08/24 09:43:23;;;;;;;5.20;1.60;;;;;;;32.25;41.88;101796.19;5045503;28;20041;-79
2022/08/24 09:46:25;;;;;;;8.95;1.92;;;;;;;33.18;40.81;101791.34;5040627;28;20026;-81
2022/08/24 09:49:14;;;;;;;2.70;1.40;;;;;;;33.87;38.93;101807.88;5046891;28;20108;-81
2022/08/24 09:52:03;;;;;;;4.40;1.23;;;;;;;33.66;38.25;101806.75;5040206;28;20041;-80
2022/08/24 09:54:31;;;;;;;4.47;1.17;;;;;;;32.56;41.01;101797.28;5027362;28;20021;-81
2022/08/24 09:57:10;;;;;;;9.38;1.10;;;;;;;33.24;40.19;101794.84;5022268;28;20105;-82
2022/08/24 10:00:12;;;;;;;2.47;1.00;;;;;;;34.43;38.45;101790.84;5040452;28;20033;-80
2022/08/24 10:02:50;;;;;;;6.43;1.23;;;;;;;34.37;38.03;101798.53;5023145;28;20048;-80
2022/08/24 10:05:45;;;;;;;2.70;1.27;;;;;;;34.31;38.24;101794.25;5044630;28;20017;-80
2022/08/24 10:08:32;;;;;;;8.48;1.15;;;;;;;33.30;38.39;101796.34;4999399;28;20515;-79
2022/08/24 10:11:20;;;;;;;4.15;1.13;;;;;;;33.36;39.09;101797.91;5050250;28;20014;-81
2022/08/24 10:14:07;;;;;;;7.40;1.30;;;;;;;33.31;38.48;101795.25;5051404;28;20132;-80
2022/08/24 10:17:14;;;;;;;3.55;0.95;;;;;;;33.06;38.35;101788.25;5032322;28;20033;-79
2022/08/24 10:19:51;;;;;;;2.50;1.15;;;;;;;32.74;39.09;101789.97;4933962;28;20038;-81
2022/08/24 10:22:32;;;;;;;2.95;1.23;;;;;;;32.56;39.82;101791.72;5020546;28;20052;-80
2022/08/24 10:25:23;;;;;;;2.85;1.10;;;;;;;32.80;38.99;101785.94;5020940;28;20032;-79
2022/08/24 10:28:10;;;;;;;7.30;1.27;;;;;;;32.83;39.19;101787.28;5010646;28;20046;-80
2022/08/24 10:31:01;;;;;;;1.95;1.20;;;;;;;32.32;39.89;101785.47;5016587;28;20026;-81
2022/08/24 10:33:27;;;;;;;2.33;1.20;;;;;;;33.17;38.43;101783.25;5042366;28;20026;-82
2022/08/24 10:36:26;;;;;;;3.37;1.33;;;;;;;32.00;41.42;101776.00;5017822;28;20485;-81
2022/08/24 10:39:42;;;;;;;6.15;1.30;;;;;;;32.74;40.15;101780.78;5011027;28;20029;-80
2022/08/24 10:46:04;;;;;;;10.45;2.85;;;;;;;34.05;40.25;101780.09;4966062;28;20054;-81
2022/08/24 10:48:29;;;;;;;9.00;2.72;;;;;;;34.00;40.20;101785.81;4968014;28;20039;-80
2022/08/24 10:51:27;;;;;;;18.00;3.20;;;;;;;33.52;41.65;101775.22;5006493;28;20054;-79
2022/08/24 10:53:53;;;;;;;17.10;3.22;;;;;;;33.90;40.34;101780.47;4991746;28;20033;-80
2022/08/24 10:56:26;;;;;;;17.08;3.17;;;;;;;33.51;40.69;101776.38;5039096;28;20072;-78
2022/08/24 10:58:51;;;;;;;15.45;3.05;;;;;;;33.53;40.69;101769.31;5006922;28;20064;-78
2022/08/24 11:01:33;;;;;;;5.17;2.33;;;;;;;33.06;40.80;101784.63;5042174;28;20403;-79
2022/08/24 11:04:05;;;;;;;8.27;2.45;;;;;;;32.84;42.32;101774.19;5036600;28;20041;-79
2022/08/24 11:06:39;;;;;;;6.78;2.00;;;;;;;33.13;41.63;101777.50;5033550;28;20057;-79
2022/08/24 11:09:09;;;;;;;10.55;2.42;;;;;;;33.99;39.55;101775.75;5030328;28;20075;-79
2022/08/24 11:11:44;;;;;;;8.85;2.08;;;;;;;34.25;39.38;101768.38;5019683;28;20034;-78
2022/08/24 11:14:15;;;;;;;10.07;2.70;;;;;;;34.04;39.90;101773.66;5039772;28;20056;-78
2022/08/24 11:16:43;;;;;;;14.45;2.67;;;;;;;34.81;36.72;101771.63;5039121;28;20076;-78
2022/08/24 11:19:25;;;;;;;6.35;2.20;;;;;;;35.28;36.87;101762.69;5031989;28;20026;-79
2022/08/24 11:21:55;;;;;;;7.38;2.10;;;;;;;35.68;35.85;101768.13;5038514;28;20114;-80
2022/08/24 11:24:43;;;;;;;10.75;2.10;;;;;;;34.60;37.06;101751.84;5022301;28;20044;-82
2022/08/24 11:27:23;;;;;;;15.30;2.95;;;;;;;34.83;37.46;101760.09;5048178;28;20175;-79
2022/08/24 11:29:48;;;;;;;7.13;1.95;;;;;;;35.46;36.63;101761.53;4995472;28;20085;-80
2022/08/24 11:32:41;;;;;;;4.83;1.87;;;;;;;35.71;36.67;101767.50;5014973;28;20484;-79
2022/08/24 11:35:09;;;;;;;5.28;2.03;;;;;;;36.19;36.02;101766.44;5031779;28;20056;-81
2022/08/24 11:37:37;;;;;;;11.68;2.20;;;;;;;35.83;36.52;101756.44;5002301;28;20037;-80
2022/08/24 11:40:05;;;;;;;6.18;2.13;;;;;;;35.33;36.95;101762.53;5010794;28;20053;-80
2022/08/24 11:42:45;;;;;;;6.80;2.30;;;;;;;34.69;38.36;101766.66;5018325;28;20056;-81
2022/08/24 11:45:15;;;;;;;7.28;2.05;;;;;;;34.43;38.43;101774.06;5026559;28;20033;-79
2022/08/24 11:47:49;;;;;;;7.57;2.38;;;;;;;34.86;38.04;101765.03;5000444;28;20037;-79